createdAt,value
2018-06-03T00:00:08.495Z,21.30
2018-06-03T00:02:37.701Z,21.30
2018-06-03T00:05:06.915Z,21.20
2018-06-03T00:07:36.093Z,21.20
2018-06-03T00:10:05.481Z,21.10
2018-06-03T00:12:34.661Z,21.10
2018-06-03T00:15:03.967Z,21.10
2018-06-03T00:17:33.205Z,21.10
2018-06-03T00:20:02.365Z,21.00
2018-06-03T00:22:32.817Z,20.90
2018-06-03T00:25:02.078Z,20.80
2018-06-03T00:27:31.225Z,20.80
2018-06-03T00:30:00.383Z,20.80
2018-06-03T00:32:29.599Z,20.70
2018-06-03T00:34:58.766Z,20.70
2018-06-03T00:37:27.985Z,20.70
2018-06-03T00:39:57.159Z,20.70
2018-06-03T00:42:27.050Z,20.70
2018-06-03T00:44:56.200Z,20.80
2018-06-03T00:47:25.535Z,20.70
2018-06-03T00:49:54.737Z,20.70
2018-06-03T00:52:23.953Z,20.70
2018-06-03T00:54:53.099Z,20.80
2018-06-03T00:57:22.297Z,20.80
2018-06-03T00:59:51.488Z,20.70
2018-06-03T01:02:20.813Z,20.70
2018-06-03T01:04:50.093Z,20.70
2018-06-03T01:07:19.364Z,20.70
2018-06-03T01:09:48.566Z,20.70
2018-06-03T01:12:17.721Z,20.80
2018-06-03T01:14:47.244Z,20.80
2018-06-03T01:17:16.470Z,20.90
2018-06-03T01:19:45.720Z,21.00
2018-06-03T01:22:15.019Z,21.00
2018-06-03T01:24:44.187Z,21.00
2018-06-03T01:27:13.485Z,21.00
2018-06-03T01:29:42.707Z,20.90
2018-06-03T01:32:11.976Z,20.80
2018-06-03T01:34:41.097Z,20.80
2018-06-03T01:37:10.373Z,20.80
2018-06-03T01:39:39.657Z,20.80
2018-06-03T01:42:08.945Z,20.90
2018-06-03T01:44:38.996Z,20.80
2018-06-03T01:47:08.241Z,20.80
2018-06-03T01:49:37.969Z,20.80
2018-06-03T01:52:07.206Z,20.80
2018-06-03T01:54:36.420Z,20.80
2018-06-03T01:57:05.876Z,20.90
2018-06-03T01:59:35.102Z,20.90
2018-06-03T02:02:04.326Z,20.90
2018-06-03T02:04:33.544Z,20.80
2018-06-03T02:07:02.792Z,20.90
2018-06-03T02:09:31.999Z,20.90
2018-06-03T02:12:01.227Z,20.80
2018-06-03T02:14:30.365Z,20.80
2018-06-03T02:16:59.596Z,20.80
2018-06-03T02:19:28.761Z,20.90
2018-06-03T02:21:57.914Z,20.90
2018-06-03T02:24:27.082Z,20.80
2018-06-03T02:26:56.602Z,20.80
2018-06-03T02:29:25.839Z,20.80
2018-06-03T02:31:55.045Z,20.80
2018-06-03T02:34:24.177Z,20.80
2018-06-03T02:36:53.373Z,20.80
2018-06-03T02:39:22.563Z,20.80
2018-06-03T02:41:51.780Z,20.70
2018-06-03T02:44:20.969Z,20.70
2018-06-03T02:46:50.388Z,20.80
2018-06-03T02:49:19.684Z,20.70
2018-06-03T02:51:48.894Z,20.80
2018-06-03T02:54:18.171Z,20.80
2018-06-03T02:56:48.026Z,20.80
2018-06-03T02:59:18.093Z,20.90
2018-06-03T03:01:47.349Z,20.90
2018-06-03T03:04:16.556Z,20.90
2018-06-03T03:06:45.715Z,20.90
2018-06-03T03:09:14.982Z,20.90
2018-06-03T03:11:44.186Z,20.90
2018-06-03T03:14:13.325Z,20.90
2018-06-03T03:16:43.291Z,20.90
2018-06-03T03:19:12.538Z,20.80
2018-06-03T03:21:41.694Z,20.80
2018-06-03T03:24:10.957Z,20.80
2018-06-03T03:26:40.175Z,21.00
2018-06-03T03:29:09.380Z,21.00
2018-06-03T03:31:38.514Z,21.00
2018-06-03T03:34:07.718Z,21.00
2018-06-03T03:36:36.876Z,21.00
2018-06-03T03:39:07.242Z,21.00
2018-06-03T03:41:36.535Z,20.90
2018-06-03T03:44:05.795Z,20.90
2018-06-03T03:46:34.970Z,20.90
2018-06-03T03:49:04.214Z,20.80
2018-06-03T03:51:33.405Z,20.90
2018-06-03T03:54:02.619Z,20.90
2018-06-03T03:56:31.798Z,20.90
2018-06-03T03:59:00.970Z,21.00
2018-06-03T04:01:30.129Z,20.80
2018-06-03T04:03:59.324Z,20.90
2018-06-03T04:06:28.523Z,20.80
2018-06-03T04:08:57.673Z,20.90
2018-06-03T04:11:26.895Z,21.00
2018-06-03T04:13:57.106Z,21.00
2018-06-03T04:16:26.514Z,21.10
2018-06-03T04:18:55.762Z,21.20
2018-06-03T04:21:24.924Z,21.30
2018-06-03T04:23:54.046Z,21.30
2018-06-03T04:28:52.522Z,21.00
2018-06-03T04:31:21.745Z,21.00
2018-06-03T04:33:52.717Z,21.00
2018-06-03T04:36:21.978Z,21.10
2018-06-03T04:38:51.790Z,21.20
2018-06-03T04:41:21.074Z,21.10
2018-06-03T04:43:50.436Z,21.10
2018-06-03T04:46:19.680Z,21.10
2018-06-03T04:51:18.158Z,21.10
2018-06-03T04:53:47.364Z,21.30
2018-06-03T04:56:16.658Z,21.20
2018-06-03T04:58:45.918Z,21.30
2018-06-03T05:01:15.121Z,21.30
2018-06-03T05:03:44.343Z,21.40
2018-06-03T05:06:13.648Z,21.40
2018-06-03T05:08:42.897Z,21.20
2018-06-03T05:11:12.181Z,21.30
2018-06-03T05:13:41.427Z,21.40
2018-06-03T05:16:10.666Z,21.30
2018-06-03T05:18:39.957Z,21.50
2018-06-03T05:21:09.210Z,21.60
2018-06-03T05:23:38.487Z,21.80
2018-06-03T05:26:07.671Z,21.90
2018-06-03T05:28:36.843Z,21.90
2018-06-03T05:33:35.127Z,21.80
2018-06-03T05:36:05.025Z,21.70
2018-06-03T05:41:33.676Z,21.60
2018-06-03T05:44:02.891Z,21.60
2018-06-03T05:46:32.009Z,21.50
2018-06-03T05:49:01.173Z,21.60
2018-06-03T05:51:30.390Z,21.30
2018-06-03T05:53:59.638Z,21.50
2018-06-03T05:56:28.797Z,21.40
2018-06-03T05:58:57.998Z,21.40
2018-06-03T06:01:27.195Z,21.50
2018-06-03T06:03:56.460Z,21.40
2018-06-03T06:06:25.600Z,21.70
2018-06-03T06:08:54.767Z,21.80
2018-06-03T06:11:24.007Z,21.70
2018-06-03T06:13:53.207Z,21.80
2018-06-03T06:16:22.394Z,21.60
2018-06-03T06:18:51.797Z,21.60
2018-06-03T06:21:20.957Z,21.60
2018-06-03T06:23:50.283Z,21.50
2018-06-03T06:26:20.542Z,21.50
2018-06-03T06:28:49.785Z,21.60
2018-06-03T06:31:19.119Z,21.60
2018-06-03T06:33:48.299Z,21.50
2018-06-03T06:36:17.530Z,21.60
2018-06-03T06:38:46.719Z,21.60
2018-06-03T06:41:15.935Z,21.80
2018-06-03T06:43:45.171Z,21.40
2018-06-03T06:46:14.390Z,21.50
2018-06-03T06:48:43.528Z,21.70
2018-06-03T06:51:12.738Z,21.80
2018-06-03T06:53:41.953Z,21.80
2018-06-03T06:56:11.199Z,21.70
2018-06-03T06:58:40.658Z,21.70
2018-06-03T07:01:09.900Z,21.70
2018-06-03T07:03:39.187Z,22.00
2018-06-03T07:06:08.527Z,21.90
2018-06-03T07:08:37.697Z,22.00
2018-06-03T07:11:06.953Z,22.30
2018-06-03T07:13:36.128Z,22.30
2018-06-03T07:16:05.382Z,22.30
2018-06-03T07:18:34.706Z,22.30
2018-06-03T07:21:03.875Z,22.10
2018-06-03T07:23:33.206Z,21.80
2018-06-03T07:26:02.544Z,21.90
2018-06-03T07:28:31.777Z,22.10
2018-06-03T07:31:01.101Z,22.30
2018-06-03T07:33:30.357Z,22.40
2018-06-03T07:36:00.667Z,22.40
2018-06-03T07:38:30.142Z,22.20
2018-06-03T07:40:59.371Z,22.10
2018-06-03T07:43:28.601Z,22.20
2018-06-03T07:45:57.876Z,22.30
2018-06-03T07:48:27.154Z,22.30
2018-06-03T07:50:56.421Z,22.10
2018-06-03T07:53:25.757Z,22.00
2018-06-03T07:55:54.963Z,22.00
2018-06-03T07:58:24.109Z,22.00
2018-06-03T08:00:53.562Z,22.20
2018-06-03T08:03:22.832Z,22.30
2018-06-03T08:05:52.159Z,22.30
2018-06-03T08:08:21.412Z,22.30
2018-06-03T08:10:50.711Z,22.30
2018-06-03T08:13:19.990Z,22.20
2018-06-03T08:15:49.344Z,22.00
2018-06-03T08:18:18.625Z,22.10
2018-06-03T08:20:47.854Z,22.20
2018-06-03T08:23:17.142Z,22.40
2018-06-03T08:25:46.291Z,22.10
2018-06-03T08:28:15.460Z,22.10
2018-06-03T08:30:44.783Z,21.90
2018-06-03T08:33:14.085Z,21.90
2018-06-03T08:35:43.378Z,21.90
2018-06-03T08:40:21.292Z,22.00
2018-06-03T08:42:50.543Z,22.00
2018-06-03T08:45:19.735Z,21.50
2018-06-03T08:47:48.951Z,21.40
2018-06-03T08:50:18.329Z,21.40
2018-06-03T08:52:47.506Z,21.70
2018-06-03T08:55:16.713Z,21.60
2018-06-03T08:57:45.923Z,21.60
2018-06-03T09:00:15.128Z,21.30
2018-06-03T09:02:44.335Z,21.20
2018-06-03T09:05:13.470Z,21.30
2018-06-03T09:07:42.691Z,21.10
2018-06-03T09:10:11.923Z,21.10
2018-06-03T09:12:41.111Z,21.30
2018-06-03T09:15:10.314Z,21.30
2018-06-03T09:17:39.490Z,21.40
2018-06-03T09:20:08.729Z,21.50
2018-06-03T09:22:37.922Z,21.40
2018-06-03T09:25:07.192Z,21.40
2018-06-03T09:27:36.424Z,21.50
2018-06-03T09:30:05.944Z,21.70
2018-06-03T09:32:35.230Z,22.10
2018-06-03T09:35:04.522Z,22.50
2018-06-03T09:37:41.459Z,22.60
2018-06-03T09:40:10.765Z,22.80
2018-06-03T09:42:40.136Z,22.90
2018-06-03T09:45:09.540Z,23.10
2018-06-03T09:47:38.972Z,23.20
2018-06-03T09:50:09.134Z,23.50
2018-06-03T09:52:38.329Z,24.00
2018-06-03T09:55:07.714Z,24.30
2018-06-03T09:57:36.947Z,24.50
2018-06-03T10:00:06.216Z,24.50
2018-06-03T10:02:35.484Z,24.50
2018-06-03T10:05:04.758Z,24.20
2018-06-03T10:07:34.022Z,24.10
2018-06-03T10:10:03.359Z,24.00
2018-06-03T10:12:32.627Z,23.70
2018-06-03T10:15:01.969Z,23.70
2018-06-03T10:17:31.206Z,23.50
2018-06-03T10:20:00.541Z,23.40
2018-06-03T10:22:29.847Z,23.40
2018-06-03T10:24:59.196Z,23.20
2018-06-03T10:27:28.427Z,23.00
2018-06-03T10:29:57.687Z,23.10
2018-06-03T10:32:26.833Z,23.10
2018-06-03T10:34:56.230Z,23.20
2018-06-03T10:37:25.524Z,23.30
2018-06-03T10:42:23.909Z,23.80
2018-06-03T10:44:53.453Z,24.10
2018-06-03T10:47:22.710Z,24.10
2018-06-03T10:49:51.969Z,24.00
2018-06-03T10:52:21.201Z,23.70
2018-06-03T10:54:50.360Z,23.80
2018-06-03T10:57:19.668Z,23.90
2018-06-03T10:59:48.948Z,23.80
2018-06-03T11:02:18.207Z,23.60
2018-06-03T11:04:47.393Z,23.50
2018-06-03T11:07:16.617Z,23.50
2018-06-03T11:09:45.888Z,23.50
2018-06-03T11:12:15.122Z,23.40
2018-06-03T11:14:44.465Z,23.40
2018-06-03T11:17:13.638Z,23.50
2018-06-03T11:19:42.940Z,23.80
2018-06-03T11:22:12.104Z,24.00
2018-06-03T11:24:41.338Z,24.40
2018-06-03T11:27:10.534Z,24.80
2018-06-03T11:29:39.698Z,25.00
2018-06-03T11:32:09.037Z,25.10
2018-06-03T11:34:38.313Z,25.00
2018-06-03T11:37:07.558Z,25.00
2018-06-03T11:39:36.857Z,24.90
2018-06-03T11:42:06.161Z,24.90
2018-06-03T11:44:35.356Z,24.40
2018-06-03T11:47:04.626Z,24.20
2018-06-03T11:49:33.793Z,24.10
2018-06-03T11:52:03.124Z,24.30
2018-06-03T11:54:32.265Z,24.50
2018-06-03T11:57:03.975Z,24.70
2018-06-03T11:59:43.670Z,25.40
2018-06-03T12:02:14.453Z,25.90
2018-06-03T12:04:43.681Z,26.60
2018-06-03T12:07:12.925Z,27.00
2018-06-03T12:09:42.126Z,27.10
2018-06-03T12:12:11.372Z,27.10
2018-06-03T12:14:40.672Z,27.10
2018-06-03T12:17:09.926Z,26.60
2018-06-03T12:19:39.113Z,26.20
2018-06-03T12:22:08.357Z,25.80
2018-06-03T12:24:37.590Z,25.90
2018-06-03T12:27:06.807Z,26.00
2018-06-03T12:29:36.066Z,26.40
2018-06-03T12:32:05.338Z,26.50
2018-06-03T12:34:34.598Z,26.70
2018-06-03T12:37:03.780Z,26.80
2018-06-03T12:39:33.598Z,26.70
2018-06-03T12:42:02.890Z,27.30
2018-06-03T12:44:32.056Z,27.20
2018-06-03T12:47:01.443Z,27.20
2018-06-03T12:49:30.947Z,26.80
2018-06-03T12:52:00.221Z,26.40
2018-06-03T12:54:30.451Z,26.40
2018-06-03T12:56:59.743Z,26.20
2018-06-03T12:59:29.111Z,26.40
2018-06-03T13:01:58.371Z,26.50
2018-06-03T13:04:27.666Z,26.90
2018-06-03T13:06:57.914Z,27.00
2018-06-03T13:11:56.344Z,26.90
2018-06-03T13:14:25.565Z,26.60
2018-06-03T13:16:54.798Z,26.90
2018-06-03T13:19:24.141Z,27.60
2018-06-03T13:21:53.403Z,28.70
2018-06-03T13:24:22.620Z,29.60
2018-06-03T13:26:51.951Z,30.30
2018-06-03T13:29:21.284Z,30.30
2018-06-03T13:31:50.555Z,30.60
2018-06-03T13:34:19.790Z,31.30
2018-06-03T13:36:49.144Z,32.50
2018-06-03T13:39:18.343Z,33.80
2018-06-03T13:41:47.561Z,34.40
2018-06-03T13:44:16.682Z,35.10
2018-06-03T13:46:45.973Z,35.70
2018-06-03T13:49:15.185Z,36.70
2018-06-03T13:51:44.443Z,37.90
2018-06-03T13:54:13.633Z,38.00
2018-06-03T13:56:42.779Z,38.50
2018-06-03T13:59:11.978Z,39.10
2018-06-03T14:01:41.214Z,39.10
2018-06-03T14:04:10.493Z,39.70
2018-06-03T14:06:39.696Z,40.10
2018-06-03T14:09:08.953Z,39.20
2018-06-03T14:11:38.253Z,38.80
2018-06-03T14:14:07.585Z,39.00
2018-06-03T14:16:36.764Z,39.30
2018-06-03T14:19:06.053Z,38.90
2018-06-03T14:21:35.302Z,38.30
2018-06-03T14:24:04.552Z,38.20
2018-06-03T14:26:33.847Z,38.00
2018-06-03T14:29:03.172Z,37.90
2018-06-03T14:31:32.463Z,37.70
2018-06-03T14:34:01.794Z,37.40
2018-06-03T14:36:31.063Z,36.60
2018-06-03T14:41:29.466Z,35.00
2018-06-03T14:43:58.743Z,34.10
2018-06-03T14:46:27.950Z,34.60
2018-06-03T14:48:57.183Z,35.10
2018-06-03T14:51:26.450Z,35.30
2018-06-03T14:53:55.677Z,35.10
2018-06-03T14:56:24.902Z,35.70
2018-06-03T14:58:54.021Z,37.50
2018-06-03T15:01:23.333Z,39.10
2018-06-03T15:03:52.582Z,40.10
2018-06-03T15:08:50.971Z,40.20
2018-06-03T15:11:20.215Z,40.50
2018-06-03T15:13:49.426Z,40.00
2018-06-03T15:16:18.640Z,40.10
2018-06-03T15:18:47.730Z,39.50
2018-06-03T15:21:16.898Z,39.70
2018-06-03T15:23:46.203Z,39.70
2018-06-03T15:26:15.515Z,39.30
2018-06-03T15:28:44.802Z,38.80
2018-06-03T15:31:14.027Z,38.80
2018-06-03T15:33:43.271Z,39.00
2018-06-03T15:36:12.601Z,38.90
2018-06-03T15:38:41.863Z,38.10
2018-06-03T15:41:11.103Z,37.50
2018-06-03T15:43:40.394Z,36.90
2018-06-03T15:46:10.285Z,36.50
2018-06-03T15:48:39.446Z,36.20
2018-06-03T15:51:08.796Z,35.60
2018-06-03T15:53:38.198Z,36.20
2018-06-03T15:56:07.558Z,36.40
2018-06-03T15:58:37.484Z,37.60
2018-06-03T16:01:06.647Z,38.20
2018-06-03T16:03:35.863Z,39.20
2018-06-03T16:06:05.055Z,39.50
2018-06-03T16:08:34.290Z,39.50
2018-06-03T16:11:03.458Z,39.00
2018-06-03T16:13:32.705Z,40.00
2018-06-03T16:16:01.990Z,40.20
2018-06-03T16:18:31.240Z,39.90
2018-06-03T16:21:00.550Z,40.00
2018-06-03T16:23:29.729Z,40.90
2018-06-03T16:25:59.014Z,41.60
2018-06-03T16:28:28.245Z,42.50
2018-06-03T16:30:57.614Z,43.10
2018-06-03T16:33:26.911Z,43.50
2018-06-03T16:35:56.074Z,43.70
2018-06-03T16:38:25.422Z,43.30
2018-06-03T16:40:54.602Z,43.50
2018-06-03T16:43:23.875Z,43.50
2018-06-03T16:45:53.033Z,43.30
2018-06-03T16:48:22.179Z,43.00
2018-06-03T16:50:51.437Z,42.50
2018-06-03T16:53:20.637Z,41.40
2018-06-03T16:55:49.908Z,40.50
2018-06-03T16:58:19.067Z,39.40
2018-06-03T17:00:48.355Z,38.30
2018-06-03T17:03:17.644Z,37.70
2018-06-03T17:05:46.938Z,37.70
2018-06-03T17:08:16.125Z,37.80
2018-06-03T17:10:45.342Z,38.20
2018-06-03T17:13:14.644Z,38.70
2018-06-03T17:15:43.921Z,39.00
2018-06-03T17:18:13.226Z,38.90
2018-06-03T17:20:42.460Z,38.90
2018-06-03T17:23:11.745Z,39.20
2018-06-03T17:25:40.975Z,39.40
2018-06-03T17:28:10.186Z,39.70
2018-06-03T17:30:39.386Z,39.70
2018-06-03T17:33:08.642Z,39.60
2018-06-03T17:35:37.846Z,39.40
2018-06-03T17:40:37.927Z,39.10
2018-06-03T17:43:07.180Z,38.80
2018-06-03T17:45:36.496Z,38.70
2018-06-03T17:48:05.961Z,38.30
2018-06-03T17:50:35.740Z,38.00
2018-06-03T17:53:05.602Z,37.60
2018-06-03T17:55:34.910Z,37.30
2018-06-03T17:58:04.806Z,37.00
2018-06-03T18:00:34.075Z,36.40
2018-06-03T18:03:03.364Z,35.80
2018-06-03T18:05:47.719Z,35.20
2018-06-03T18:08:16.920Z,34.60
2018-06-03T18:10:46.266Z,33.80
2018-06-03T18:13:15.547Z,33.10
2018-06-03T18:15:44.796Z,32.30
2018-06-03T18:18:14.040Z,31.70
2018-06-03T18:20:43.367Z,31.10
2018-06-03T18:23:12.667Z,30.60
2018-06-03T18:25:41.924Z,30.10
2018-06-03T18:28:11.248Z,29.60
2018-06-03T18:30:42.587Z,28.60
2018-06-03T18:33:12.085Z,28.50
2018-06-03T18:35:41.425Z,28.30
2018-06-03T18:38:10.848Z,28.00
2018-06-03T18:40:40.068Z,27.60
2018-06-03T18:43:09.319Z,27.40
2018-06-03T18:45:38.564Z,27.10
2018-06-03T18:48:07.760Z,26.70
2018-06-03T18:50:37.011Z,26.50
2018-06-03T18:53:06.697Z,26.30
2018-06-03T18:58:05.172Z,25.80
2018-06-03T19:00:34.483Z,25.50
2018-06-03T19:03:03.840Z,25.30
2018-06-03T19:05:33.049Z,25.00
2018-06-03T19:08:02.452Z,24.80
2018-06-03T19:10:31.726Z,24.70
2018-06-03T19:13:01.034Z,24.50
2018-06-03T19:15:30.300Z,24.30
2018-06-03T19:17:59.551Z,24.20
2018-06-03T19:20:28.811Z,24.10
2018-06-03T19:22:58.636Z,24.00
2018-06-03T19:25:27.972Z,23.80
2018-06-03T19:27:57.338Z,23.70
2018-06-03T19:30:26.690Z,23.60
2018-06-03T19:32:56.045Z,23.50
2018-06-03T19:35:25.315Z,23.40
2018-06-03T19:37:54.698Z,23.20
2018-06-03T19:40:24.074Z,23.10
2018-06-03T19:42:53.440Z,22.90
2018-06-03T19:45:22.749Z,22.80
2018-06-03T19:47:52.057Z,22.70
2018-06-03T19:50:21.400Z,22.60
2018-06-03T19:52:50.796Z,22.40
2018-06-03T19:55:20.156Z,22.40
2018-06-03T19:57:49.421Z,22.40
2018-06-03T20:00:18.746Z,22.30
2018-06-03T20:02:48.020Z,22.30
2018-06-03T20:05:17.945Z,22.20
2018-06-03T20:07:47.255Z,22.20
2018-06-03T20:10:16.489Z,22.10
2018-06-03T20:12:45.750Z,22.00
2018-06-03T20:15:15.087Z,22.00
2018-06-03T20:17:44.570Z,21.90
2018-06-03T20:20:13.847Z,21.80
2018-06-03T20:22:43.125Z,21.80
2018-06-03T20:25:12.436Z,21.80
2018-06-03T20:27:42.026Z,21.80
2018-06-03T20:30:11.367Z,21.80
2018-06-03T20:32:40.717Z,21.80
2018-06-03T20:35:10.034Z,21.70
2018-06-03T20:37:39.409Z,21.70
2018-06-03T20:40:08.787Z,21.70
2018-06-03T20:42:38.223Z,21.60
2018-06-03T20:45:07.643Z,21.60
2018-06-03T20:47:36.917Z,21.60
2018-06-03T20:50:06.305Z,21.60
2018-06-03T20:52:35.578Z,21.50
2018-06-03T20:57:48.984Z,21.40
2018-06-03T21:00:19.123Z,21.40
2018-06-03T21:02:48.494Z,21.30
2018-06-03T21:05:17.790Z,21.30
2018-06-03T21:07:47.100Z,21.20
2018-06-03T21:10:16.334Z,21.20
2018-06-03T21:12:45.675Z,21.20
2018-06-03T21:15:14.922Z,21.30
2018-06-03T21:17:44.314Z,21.20
2018-06-03T21:20:13.547Z,21.10
2018-06-03T21:22:43.422Z,21.10
2018-06-03T21:25:12.789Z,21.10
2018-06-03T21:27:42.084Z,21.10
2018-06-03T21:30:11.334Z,21.00
2018-06-03T21:32:40.580Z,21.00
2018-06-03T21:35:09.796Z,21.00
2018-06-03T21:37:39.139Z,21.00
2018-06-03T21:40:08.385Z,20.90
2018-06-03T21:42:37.764Z,20.90
2018-06-03T21:45:07.093Z,20.90
2018-06-03T21:47:36.360Z,20.90
2018-06-03T21:50:05.546Z,20.90
2018-06-03T21:52:34.803Z,20.90
2018-06-03T21:55:04.020Z,20.90
2018-06-03T21:57:33.215Z,20.90
2018-06-03T22:00:02.480Z,20.90
2018-06-03T22:02:31.745Z,20.90
2018-06-03T22:05:01.051Z,20.80
2018-06-03T22:07:30.323Z,20.80
2018-06-03T22:09:59.698Z,20.60
2018-06-03T22:12:28.951Z,20.70
2018-06-03T22:14:58.293Z,20.70
2018-06-03T22:17:27.499Z,20.60
2018-06-03T22:19:56.706Z,20.70
2018-06-03T22:22:27.281Z,20.60
2018-06-03T22:24:57.222Z,20.60
2018-06-03T22:27:26.563Z,20.60
2018-06-03T22:29:55.783Z,20.60
2018-06-03T22:32:25.074Z,20.60
2018-06-03T22:34:54.546Z,20.60
2018-06-03T22:37:23.925Z,20.50
2018-06-03T22:39:53.142Z,20.50
2018-06-03T22:42:22.444Z,20.50
2018-06-03T22:44:51.686Z,20.50
2018-06-03T22:47:20.953Z,20.40
2018-06-03T22:49:50.215Z,20.40
2018-06-03T22:52:19.399Z,20.40
2018-06-03T22:54:48.682Z,20.30
2018-06-03T22:57:51.594Z,20.30
2018-06-03T23:00:29.363Z,20.30
2018-06-03T23:03:04.078Z,20.30
2018-06-03T23:05:33.432Z,20.30
2018-06-03T23:08:02.807Z,20.20
2018-06-03T23:10:39.411Z,20.20
2018-06-03T23:13:09.625Z,20.10
2018-06-03T23:15:38.907Z,20.10
2018-06-03T23:18:08.806Z,20.10
2018-06-03T23:20:38.084Z,20.00
2018-06-03T23:23:07.331Z,20.00
2018-06-03T23:25:36.529Z,20.00
2018-06-03T23:28:05.728Z,20.00
2018-06-03T23:30:34.996Z,20.00
2018-06-03T23:33:04.242Z,20.00
2018-06-03T23:35:33.403Z,20.00
2018-06-03T23:38:03.332Z,19.90
2018-06-03T23:40:32.609Z,19.90
2018-06-03T23:43:01.905Z,19.90
2018-06-03T23:45:31.105Z,19.90
2018-06-03T23:48:00.410Z,19.90
2018-06-03T23:50:29.600Z,19.90
2018-06-03T23:52:58.935Z,19.90
2018-06-03T23:55:28.166Z,19.90
2018-06-03T23:57:57.308Z,19.80
